createdAt,value
2022-09-12T00:02:14.661Z,16.33
2022-09-12T00:04:44.431Z,16.27
2022-09-12T00:07:14.171Z,16.28
2022-09-12T00:09:43.922Z,16.13
2022-09-12T00:12:13.657Z,16.10
2022-09-12T00:14:43.428Z,16.17
2022-09-12T00:17:13.253Z,16.16
2022-09-12T00:19:43.005Z,16.16
2022-09-12T00:22:13.140Z,16.13
2022-09-12T00:24:42.895Z,16.15
2022-09-12T00:27:12.643Z,16.12
2022-09-12T00:29:42.681Z,16.13
2022-09-12T00:32:12.207Z,16.07
2022-09-12T00:34:41.952Z,15.96
2022-09-12T00:37:11.690Z,15.88
2022-09-12T00:39:41.593Z,15.77
2022-09-12T00:42:13.214Z,15.85
2022-09-12T00:44:45.688Z,15.97
2022-09-12T00:47:23.751Z,15.92
2022-09-12T00:50:02.459Z,15.79
2022-09-12T00:52:38.207Z,15.74
2022-09-12T00:55:13.936Z,15.63
2022-09-12T00:57:58.737Z,15.72
2022-09-12T01:00:30.028Z,15.72
2022-09-12T01:03:02.834Z,15.67
2022-09-12T01:05:35.488Z,15.68
2022-09-12T01:08:07.118Z,15.54
2022-09-12T01:10:39.082Z,15.56
2022-09-12T01:13:11.138Z,15.40
2022-09-12T01:15:41.411Z,15.45
2022-09-12T01:18:14.885Z,15.50
2022-09-12T01:21:05.743Z,15.44
2022-09-12T01:23:41.516Z,15.39
2022-09-12T01:26:38.076Z,15.48
2022-09-12T01:29:39.158Z,15.42
2022-09-12T01:32:28.666Z,15.42
2022-09-12T01:35:04.347Z,15.32
2022-09-12T01:37:45.688Z,15.39
2022-09-12T01:40:30.315Z,15.47
2022-09-12T01:43:26.671Z,15.48
2022-09-12T01:46:02.455Z,15.34
2022-09-12T01:48:35.812Z,15.41
2022-09-12T01:51:24.531Z,15.33
2022-09-12T01:53:57.347Z,15.43
2022-09-12T01:56:29.653Z,15.40
2022-09-12T01:59:08.453Z,15.32
2022-09-12T02:01:49.039Z,15.31
2022-09-12T02:04:31.049Z,15.33
2022-09-12T02:07:10.775Z,15.23
2022-09-12T02:09:50.002Z,15.17
2022-09-12T02:12:22.519Z,15.15
2022-09-12T02:14:55.488Z,15.20
2022-09-12T02:17:27.159Z,15.15
2022-09-12T02:20:02.642Z,15.29
2022-09-12T02:22:34.672Z,15.19
2022-09-12T02:25:08.497Z,15.16
2022-09-12T02:27:46.982Z,15.15
2022-09-12T02:30:19.404Z,15.07
2022-09-12T02:33:04.083Z,15.07
2022-09-12T02:35:45.787Z,15.00
2022-09-12T02:38:34.558Z,14.95
2022-09-12T02:41:04.609Z,14.82
2022-09-12T02:43:35.180Z,14.84
2022-09-12T02:46:12.318Z,14.93
2022-09-12T02:48:44.476Z,15.10
2022-09-12T02:51:14.560Z,15.00
2022-09-12T02:53:45.061Z,14.95
2022-09-12T02:56:17.909Z,14.97
2022-09-12T02:58:48.573Z,15.01
2022-09-12T03:01:36.193Z,15.01
2022-09-12T03:04:17.765Z,14.96
2022-09-12T03:06:59.523Z,14.78
2022-09-12T03:09:46.932Z,14.98
2022-09-12T03:12:40.352Z,14.95
2022-09-12T03:15:40.560Z,14.85
2022-09-12T03:18:31.240Z,14.85
2022-09-12T03:21:09.795Z,14.82
2022-09-12T03:24:15.752Z,14.97
2022-09-12T03:27:00.717Z,14.94
2022-09-12T03:29:31.529Z,14.91
2022-09-12T03:32:01.265Z,14.90
2022-09-12T03:34:31.006Z,14.88
2022-09-12T03:37:00.819Z,15.04
2022-09-12T03:39:30.963Z,14.95
2022-09-12T03:42:00.524Z,14.86
2022-09-12T03:44:30.559Z,14.96
2022-09-12T03:47:00.604Z,15.03
2022-09-12T03:49:30.360Z,15.01
2022-09-12T03:52:00.094Z,14.95
2022-09-12T03:54:29.836Z,14.94
2022-09-12T03:56:59.590Z,15.00
2022-09-12T03:59:29.661Z,14.87
2022-09-12T04:01:59.542Z,14.96
2022-09-12T04:04:29.661Z,14.89
2022-09-12T04:06:59.542Z,14.86
2022-09-12T04:09:29.848Z,14.98
2022-09-12T04:11:59.886Z,14.96
2022-09-12T04:14:29.635Z,14.86
2022-09-12T04:16:59.208Z,14.92
2022-09-12T04:19:29.196Z,14.90
2022-09-12T04:21:59.381Z,14.97
2022-09-12T04:24:29.120Z,14.96
2022-09-12T04:26:58.932Z,15.02
2022-09-12T04:29:29.426Z,15.12
2022-09-12T04:31:59.173Z,15.14
2022-09-12T04:34:32.088Z,15.07
2022-09-12T04:37:01.824Z,15.05
2022-09-12T04:39:31.564Z,14.95
2022-09-12T04:42:01.330Z,15.16
2022-09-12T04:44:31.535Z,15.14
2022-09-12T04:47:01.592Z,15.06
2022-09-12T04:49:31.712Z,15.04
2022-09-12T04:52:01.648Z,15.16
2022-09-12T04:54:31.383Z,15.19
2022-09-12T04:57:01.255Z,15.09
2022-09-12T04:59:31.015Z,15.11
2022-09-12T05:02:00.869Z,15.11
2022-09-12T05:04:31.546Z,15.02
2022-09-12T05:07:01.574Z,15.23
2022-09-12T05:09:31.789Z,15.38
2022-09-12T05:12:04.613Z,15.25
2022-09-12T05:14:33.325Z,15.31
2022-09-12T05:17:04.110Z,15.31
2022-09-12T05:19:34.159Z,15.29
2022-09-12T05:22:06.626Z,15.29
2022-09-12T05:24:38.633Z,15.35
2022-09-12T05:27:08.391Z,15.50
2022-09-12T05:29:38.138Z,15.38
2022-09-12T05:32:09.704Z,15.33
2022-09-12T05:34:41.141Z,15.36
2022-09-12T05:37:10.895Z,15.42
2022-09-12T05:39:40.696Z,15.42
2022-09-12T05:42:12.097Z,15.60
2022-09-12T05:44:41.840Z,15.52
2022-09-12T05:47:13.288Z,15.58
2022-09-12T05:49:44.674Z,15.44
2022-09-12T05:52:14.121Z,15.69
2022-09-12T05:54:44.032Z,15.59
2022-09-12T05:57:13.768Z,15.76
2022-09-12T05:59:43.335Z,15.72
2022-09-12T06:02:13.205Z,15.65
2022-09-12T06:04:43.475Z,15.75
2022-09-12T06:07:14.420Z,15.70
2022-09-12T06:09:44.166Z,15.73
2022-09-12T06:12:13.898Z,15.60
2022-09-12T06:14:43.640Z,15.77
2022-09-12T06:17:14.138Z,15.84
2022-09-12T06:19:43.874Z,15.82
2022-09-12T06:22:13.906Z,15.59
2022-09-12T06:24:43.680Z,15.77
2022-09-12T06:27:13.228Z,15.82
2022-09-12T06:29:42.972Z,15.91
2022-09-12T06:32:12.714Z,15.98
2022-09-12T06:34:42.823Z,15.82
2022-09-12T06:37:12.637Z,15.86
2022-09-12T06:39:42.731Z,15.83
2022-09-12T06:42:13.836Z,15.83
2022-09-12T06:44:45.348Z,15.85
2022-09-12T06:47:15.108Z,15.80
2022-09-12T06:49:44.850Z,15.71
2022-09-12T06:52:14.304Z,15.55
2022-09-12T06:54:44.052Z,15.73
2022-09-12T06:57:13.804Z,15.67
2022-09-12T06:59:43.543Z,15.75
2022-09-12T07:02:13.429Z,15.75
2022-09-12T07:04:43.343Z,15.75
2022-09-12T07:07:13.099Z,15.78
2022-09-12T07:09:42.853Z,15.95
2022-09-12T07:12:12.527Z,16.05
2022-09-12T07:14:42.282Z,16.21
2022-09-12T07:17:12.423Z,16.56
2022-09-12T07:19:42.131Z,16.71
2022-09-12T07:22:12.239Z,16.62
2022-09-12T07:24:41.992Z,16.68
2022-09-12T07:27:11.737Z,16.92
2022-09-12T07:29:41.212Z,16.99
2022-09-12T07:32:12.017Z,17.06
2022-09-12T07:34:41.828Z,17.06
2022-09-12T07:37:11.649Z,17.36
2022-09-12T07:39:41.766Z,17.36
2022-09-12T07:42:12.522Z,17.80
2022-09-12T07:44:42.335Z,17.80
2022-09-12T07:47:12.092Z,18.18
2022-09-12T07:49:41.850Z,18.48
2022-09-12T07:52:11.774Z,18.57
2022-09-12T07:54:41.529Z,18.61
2022-09-12T07:57:11.331Z,18.61
2022-09-12T07:59:52.606Z,18.60
2022-09-12T08:02:17.272Z,18.70
2022-09-12T08:04:45.998Z,19.11
2022-09-12T08:07:15.823Z,19.45
2022-09-12T08:09:46.111Z,19.50
2022-09-12T08:12:17.682Z,19.75
2022-09-12T08:14:48.153Z,19.77
2022-09-12T08:17:17.927Z,19.59
2022-09-12T08:19:48.151Z,19.78
2022-09-12T08:22:19.535Z,19.68
2022-09-12T08:24:50.785Z,19.62
2022-09-12T08:27:20.623Z,19.78
2022-09-12T08:29:50.389Z,19.93
2022-09-12T08:32:20.297Z,20.11
2022-09-12T08:34:50.064Z,20.03
2022-09-12T08:37:19.952Z,20.06
2022-09-12T08:39:49.781Z,20.30
2022-09-12T08:42:23.939Z,20.59
2022-09-12T08:45:05.210Z,20.64
2022-09-12T08:47:40.560Z,20.73
2022-09-12T08:50:18.625Z,20.59
2022-09-12T08:53:07.306Z,20.87
2022-09-12T08:56:03.782Z,20.94
2022-09-12T08:58:36.647Z,21.12
2022-09-12T09:01:18.252Z,21.54
2022-09-12T09:04:03.198Z,21.57
2022-09-12T09:06:59.180Z,21.66
2022-09-12T09:09:55.673Z,21.82
2022-09-12T09:12:43.122Z,21.99
2022-09-12T09:15:27.794Z,22.28
2022-09-12T09:18:04.119Z,22.54
2022-09-12T09:20:43.506Z,22.68
2022-09-12T09:23:37.582Z,22.69
2022-09-12T09:26:11.441Z,22.96
2022-09-12T09:28:53.170Z,23.34
2022-09-12T09:31:25.365Z,23.66
2022-09-12T09:33:56.148Z,23.55
2022-09-12T09:36:28.726Z,23.60
2022-09-12T09:39:18.624Z,23.60
2022-09-12T09:42:14.802Z,24.11
2022-09-12T09:44:47.256Z,24.24
2022-09-12T09:47:19.610Z,24.24
2022-09-12T09:49:49.366Z,24.44
2022-09-12T09:52:22.152Z,24.36
2022-09-12T09:54:55.056Z,24.47
2022-09-12T09:57:40.861Z,24.53
2022-09-12T10:00:25.470Z,24.71
2022-09-12T10:03:31.365Z,24.53
2022-09-12T10:06:08.888Z,24.97
2022-09-12T10:08:39.235Z,24.75
2022-09-12T10:11:17.626Z,24.50
2022-09-12T10:13:57.738Z,24.69
2022-09-12T10:16:30.505Z,25.28
2022-09-12T10:19:02.674Z,25.52
2022-09-12T10:21:41.632Z,25.11
2022-09-12T10:24:43.566Z,25.15
2022-09-12T10:27:16.917Z,25.63
2022-09-12T10:29:52.446Z,25.36
2022-09-12T10:32:31.049Z,25.09
2022-09-12T10:35:03.967Z,25.57
2022-09-12T10:37:41.128Z,25.98
2022-09-12T10:40:24.893Z,26.21
2022-09-12T10:42:57.079Z,26.21
2022-09-12T10:45:32.679Z,25.82
2022-09-12T10:48:07.742Z,26.24
2022-09-12T10:50:42.961Z,26.49
2022-09-12T10:53:34.355Z,26.21
2022-09-12T10:56:04.657Z,25.97
2022-09-12T10:58:42.689Z,26.04
2022-09-12T11:01:24.156Z,26.28
2022-09-12T11:04:21.087Z,26.15
2022-09-12T11:07:11.851Z,26.34
2022-09-12T11:09:47.058Z,26.09
2022-09-12T11:12:25.408Z,26.09
2022-09-12T11:15:17.066Z,26.37
2022-09-12T11:17:49.848Z,26.59
2022-09-12T11:20:34.226Z,26.30
2022-09-12T11:23:22.062Z,26.30
2022-09-12T11:26:03.571Z,26.22
2022-09-12T11:28:47.094Z,26.34
2022-09-12T11:31:45.988Z,26.48
2022-09-12T11:34:18.758Z,26.55
2022-09-12T11:36:54.352Z,26.61
2022-09-12T11:39:26.767Z,26.49
2022-09-12T11:42:02.375Z,26.66
2022-09-12T11:44:40.549Z,26.70
2022-09-12T11:47:13.453Z,26.85
2022-09-12T11:49:49.085Z,26.96
2022-09-12T11:52:21.605Z,27.21
2022-09-12T11:55:03.777Z,27.09
2022-09-12T11:57:44.489Z,27.10
2022-09-12T12:00:20.418Z,27.51
2022-09-12T12:03:11.203Z,27.45
2022-09-12T12:05:58.210Z,27.06
2022-09-12T12:08:30.989Z,27.22
2022-09-12T12:11:05.588Z,27.22
2022-09-12T12:13:39.296Z,27.35
2022-09-12T12:16:26.060Z,27.62
2022-09-12T12:18:58.587Z,27.56
2022-09-12T12:21:49.286Z,27.53
2022-09-12T12:24:24.414Z,27.54
2022-09-12T12:27:06.082Z,27.36
2022-09-12T12:29:45.838Z,26.85
2022-09-12T12:32:21.003Z,26.85
2022-09-12T12:34:50.612Z,27.13
2022-09-12T12:37:23.391Z,27.42
2022-09-12T12:40:00.227Z,27.43
2022-09-12T12:42:38.891Z,27.41
2022-09-12T12:45:12.090Z,27.48
2022-09-12T12:47:45.249Z,27.20
2022-09-12T12:50:23.282Z,27.48
2022-09-12T12:52:56.165Z,27.48
2022-09-12T12:55:40.649Z,27.60
2022-09-12T12:58:31.641Z,27.64
2022-09-12T13:01:16.778Z,27.76
2022-09-12T13:03:49.933Z,27.65
2022-09-12T13:06:28.304Z,27.66
2022-09-12T13:09:06.550Z,27.66
2022-09-12T13:11:42.023Z,27.76
2022-09-12T13:14:46.726Z,27.78
2022-09-12T13:17:22.621Z,27.89
2022-09-12T13:20:16.940Z,28.41
2022-09-12T13:22:26.263Z,28.11
2022-09-12T13:24:56.009Z,28.50
2022-09-12T13:27:26.885Z,28.76
2022-09-12T13:30:11.754Z,28.79
2022-09-12T13:32:42.949Z,28.63
2022-09-12T13:35:34.550Z,28.37
2022-09-12T13:38:18.674Z,28.55
2022-09-12T13:41:24.020Z,28.11
2022-09-12T13:43:53.906Z,28.14
2022-09-12T13:46:30.261Z,28.67
2022-09-12T13:49:02.839Z,28.41
2022-09-12T13:51:33.667Z,28.69
2022-09-12T13:54:06.410Z,28.10
2022-09-12T13:56:39.206Z,28.33
2022-09-12T13:59:13.328Z,28.17
2022-09-12T14:01:45.161Z,28.21
2022-09-12T14:04:41.317Z,28.05
2022-09-12T14:07:20.124Z,28.12
2022-09-12T14:10:00.834Z,28.11
2022-09-12T14:12:40.990Z,27.71
2022-09-12T14:15:23.674Z,27.97
2022-09-12T14:17:56.540Z,28.38
2022-09-12T14:20:26.104Z,28.24
2022-09-12T14:22:56.105Z,28.47
2022-09-12T14:25:27.763Z,28.47
2022-09-12T14:27:59.004Z,28.55
2022-09-12T14:30:37.143Z,28.38
2022-09-12T14:33:16.007Z,28.59
2022-09-12T14:35:53.717Z,28.82
2022-09-12T14:38:29.265Z,28.68
2022-09-12T14:41:01.909Z,28.86
2022-09-12T14:43:36.943Z,28.77
2022-09-12T14:46:21.368Z,28.89
2022-09-12T14:48:54.318Z,28.93
2022-09-12T14:51:29.743Z,28.67
2022-09-12T14:53:59.567Z,28.55
2022-09-12T14:56:46.667Z,28.40
2022-09-12T14:59:36.261Z,28.48
2022-09-12T15:02:16.854Z,28.44
2022-09-12T15:04:48.941Z,27.58
2022-09-12T15:07:24.696Z,27.58
2022-09-12T15:09:54.436Z,28.05
2022-09-12T15:12:25.119Z,28.09
2022-09-12T15:14:57.903Z,27.60
2022-09-12T15:17:27.637Z,27.85
2022-09-12T15:19:57.679Z,28.25
2022-09-12T15:22:27.674Z,28.36
2022-09-12T15:24:57.484Z,28.41
2022-09-12T15:27:27.475Z,28.48
2022-09-12T15:29:57.288Z,28.28
2022-09-12T15:32:29.448Z,28.30
2022-09-12T15:34:59.213Z,28.13
2022-09-12T15:37:28.941Z,27.58
2022-09-12T15:39:58.734Z,27.50
2022-09-12T15:42:31.272Z,27.70
2022-09-12T15:45:02.716Z,27.83
2022-09-12T15:47:32.713Z,27.83
2022-09-12T15:50:02.452Z,27.49
2022-09-12T15:52:33.048Z,27.49
2022-09-12T15:55:03.192Z,27.78
2022-09-12T15:57:32.925Z,27.70
2022-09-12T16:00:02.791Z,27.61
2022-09-12T16:02:34.276Z,27.58
2022-09-12T16:05:04.674Z,27.62
2022-09-12T16:07:34.449Z,27.41
2022-09-12T16:10:06.695Z,27.60
2022-09-12T16:12:36.422Z,27.61
2022-09-12T16:15:08.232Z,27.02
2022-09-12T16:17:37.969Z,27.42
2022-09-12T16:20:10.000Z,27.10
2022-09-12T16:22:40.184Z,27.17
2022-09-12T16:25:10.807Z,27.25
2022-09-12T16:27:40.602Z,27.24
2022-09-12T16:30:13.335Z,27.38
2022-09-12T16:32:43.060Z,27.36
2022-09-12T16:35:12.829Z,27.00
2022-09-12T16:37:42.430Z,26.69
2022-09-12T16:40:15.736Z,26.92
2022-09-12T16:42:48.726Z,27.04
2022-09-12T16:45:18.166Z,27.31
2022-09-12T16:47:47.907Z,27.48
2022-09-12T16:50:17.408Z,27.17
2022-09-12T16:52:47.140Z,27.08
2022-09-12T16:55:16.987Z,26.81
2022-09-12T16:57:48.460Z,26.74
2022-09-12T17:00:18.176Z,26.52
2022-09-12T17:02:48.336Z,26.31
2022-09-12T17:05:18.157Z,26.16
2022-09-12T17:07:47.969Z,26.09
2022-09-12T17:10:17.961Z,25.85
2022-09-12T17:12:47.708Z,25.70
2022-09-12T17:15:17.790Z,25.77
2022-09-12T17:17:47.679Z,25.44
2022-09-12T17:20:17.576Z,25.44
2022-09-12T17:22:47.292Z,25.56
2022-09-12T17:25:17.141Z,25.36
2022-09-12T17:27:46.852Z,25.35
2022-09-12T17:30:16.836Z,25.13
2022-09-12T17:32:46.579Z,25.07
2022-09-12T17:35:16.711Z,25.01
2022-09-12T17:37:46.724Z,24.95
2022-09-12T17:40:16.350Z,24.91
2022-09-12T17:42:46.134Z,24.98
2022-09-12T17:45:18.421Z,24.87
2022-09-12T17:47:47.597Z,24.91
2022-09-12T17:50:39.299Z,24.81
2022-09-12T17:52:51.830Z,24.75
2022-09-12T17:55:21.418Z,24.57
2022-09-12T17:57:51.134Z,24.61
2022-09-12T18:00:22.427Z,24.36
2022-09-12T18:02:52.199Z,24.39
2022-09-12T18:05:21.780Z,24.40
2022-09-12T18:07:52.882Z,24.26
2022-09-12T18:10:22.784Z,24.09
2022-09-12T18:12:52.673Z,24.07
2022-09-12T18:15:22.581Z,23.99
2022-09-12T18:17:52.602Z,23.91
2022-09-12T18:20:22.057Z,23.66
2022-09-12T18:22:51.800Z,23.66
2022-09-12T18:25:21.598Z,23.55
2022-09-12T18:27:51.393Z,23.58
2022-09-12T18:30:22.570Z,23.53
2022-09-12T18:32:52.607Z,23.52
2022-09-12T18:35:22.040Z,23.43
2022-09-12T18:37:51.769Z,23.27
2022-09-12T18:40:21.308Z,23.34
2022-09-12T18:42:51.490Z,23.30
2022-09-12T18:45:21.505Z,23.16
2022-09-12T18:47:51.267Z,22.94
2022-09-12T18:50:20.986Z,22.94
2022-09-12T18:52:55.659Z,22.87
2022-09-12T18:55:24.432Z,22.79
2022-09-12T18:57:55.747Z,22.86
2022-09-12T19:00:25.515Z,22.72
2022-09-12T19:02:55.225Z,22.62
2022-09-12T19:05:25.932Z,22.67
2022-09-12T19:07:55.662Z,22.45
2022-09-12T19:10:25.765Z,22.46
2022-09-12T19:12:55.571Z,22.44
2022-09-12T19:15:25.286Z,22.33
2022-09-12T19:17:55.012Z,22.17
2022-09-12T19:20:24.457Z,21.98
2022-09-12T19:22:54.188Z,21.87
2022-09-12T19:25:24.012Z,22.00
2022-09-12T19:27:53.728Z,22.06
2022-09-12T19:30:23.811Z,22.00
2022-09-12T19:32:53.532Z,22.05
2022-09-12T19:35:22.967Z,21.94
2022-09-12T19:37:52.775Z,21.94
2022-09-12T19:40:22.622Z,21.82
2022-09-12T19:42:52.346Z,21.66
2022-09-12T19:45:22.069Z,21.67
2022-09-12T19:47:51.869Z,21.61
2022-09-12T19:50:21.573Z,21.62
2022-09-12T19:52:51.679Z,21.75
2022-09-12T19:55:22.162Z,21.56
2022-09-12T19:57:51.882Z,21.62
2022-09-12T20:00:22.288Z,21.33
2022-09-12T20:02:53.248Z,21.41
2022-09-12T20:05:22.765Z,21.41
2022-09-12T20:07:52.213Z,21.60
2022-09-12T20:10:21.956Z,21.59
2022-09-12T20:12:51.749Z,21.35
2022-09-12T20:15:21.184Z,21.38
2022-09-12T20:17:56.130Z,21.40
2022-09-12T20:20:26.506Z,21.45
2022-09-12T20:22:56.237Z,21.41
2022-09-12T20:25:25.676Z,21.35
2022-09-12T20:27:59.920Z,21.34
2022-09-12T20:30:27.232Z,21.32
2022-09-12T20:32:56.954Z,21.30
2022-09-12T20:35:26.691Z,21.24
2022-09-12T20:37:56.706Z,21.11
2022-09-12T20:40:26.510Z,21.21
2022-09-12T20:42:56.265Z,21.25
2022-09-12T20:45:25.760Z,20.93
2022-09-12T20:47:55.766Z,20.91
2022-09-12T20:50:25.936Z,20.87
2022-09-12T20:52:55.661Z,20.87
2022-09-12T20:55:26.433Z,21.05
2022-09-12T20:57:56.165Z,21.07
2022-09-12T21:00:25.929Z,20.93
2022-09-12T21:02:55.768Z,20.78
2022-09-12T21:05:25.236Z,20.66
2022-09-12T21:07:54.982Z,20.72
2022-09-12T21:10:24.730Z,20.55
2022-09-12T21:12:54.626Z,20.58
2022-09-12T21:15:24.053Z,20.60
2022-09-12T21:17:53.942Z,20.67
2022-09-12T21:20:23.587Z,20.52
2022-09-12T21:22:53.320Z,20.44
2022-09-12T21:25:22.763Z,20.54
2022-09-12T21:27:52.508Z,20.69
2022-09-12T21:30:22.543Z,20.46
2022-09-12T21:32:52.264Z,20.33
2022-09-12T21:35:22.010Z,20.55
2022-09-12T21:37:53.173Z,20.56
2022-09-12T21:40:23.073Z,20.43
2022-09-12T21:42:52.799Z,20.67
2022-09-12T21:45:22.236Z,20.67
2022-09-12T21:47:51.973Z,20.69
2022-09-12T21:50:21.702Z,20.63
2022-09-12T21:52:51.745Z,20.59
2022-09-12T21:55:22.862Z,20.59
2022-09-12T21:57:52.607Z,20.62
2022-09-12T22:00:22.644Z,20.80
2022-09-12T22:02:53.660Z,20.82
2022-09-12T22:05:24.529Z,20.74
2022-09-12T22:07:54.587Z,20.66
2022-09-12T22:10:25.005Z,20.95
2022-09-12T22:12:54.752Z,20.89
2022-09-12T22:15:40.232Z,20.83
2022-09-12T22:17:56.678Z,20.83
2022-09-12T22:20:26.509Z,20.68
2022-09-12T22:23:13.686Z,20.69
2022-09-12T22:25:43.482Z,20.85
2022-09-12T22:28:13.674Z,20.94
2022-09-12T22:30:46.453Z,20.82
2022-09-12T22:33:16.270Z,20.86
2022-09-12T22:35:46.000Z,20.95
2022-09-12T22:38:15.742Z,21.00
2022-09-12T22:40:45.479Z,20.95
2022-09-12T22:43:15.676Z,21.03
2022-09-12T22:45:45.413Z,20.94
2022-09-12T22:48:16.797Z,20.94
2022-09-12T22:53:23.799Z,21.01
2022-09-12T22:55:53.611Z,20.95
2022-09-12T22:58:23.056Z,21.05
2022-09-12T23:00:52.959Z,21.00
2022-09-12T23:03:22.787Z,20.99
2022-09-12T23:05:52.578Z,20.82
2022-09-12T23:08:22.191Z,20.88
2022-09-12T23:10:51.680Z,20.98
2022-09-12T23:13:21.441Z,20.80
2022-09-12T23:15:56.235Z,20.61
2022-09-12T23:18:26.079Z,20.61
2022-09-12T23:21:03.213Z,20.75
2022-09-12T23:23:33.655Z,20.61
2022-09-12T23:26:15.122Z,20.66
2022-09-12T23:28:50.639Z,20.61
2022-09-12T23:31:21.451Z,20.73
2022-09-12T23:33:56.260Z,20.55
2022-09-12T23:36:27.107Z,20.49
2022-09-12T23:38:57.288Z,20.50
2022-09-12T23:41:27.159Z,20.35
2022-09-12T23:43:57.237Z,20.52
2022-09-12T23:46:27.356Z,20.43
2022-09-12T23:48:57.111Z,20.40
2022-09-12T23:51:27.069Z,20.32
2022-09-12T23:53:56.818Z,20.29
2022-09-12T23:56:26.808Z,20.40
2022-09-12T23:58:56.540Z,20.40
